Meteo Giornale » Osservazioni meteo Italia » Genova-Sestri

ore: 11:50 - Osservazioni Meteo Genova-Sestri
Lat. 44° 25' N Lon. 8° 51' E Alt. 2 metri s.l.m.

poco_nuvoloso Europe/Rome

27 °C

Poco Nuvoloso

Temp. 24 Ore

23 °C

31 °C

Ovest/Sud-Ovest

9.3 Km/h

Dew point 19 °C

Umidità 61 %

Visibilità  10 Km

Il sole sorge alle ore 05:38

Il sole tramonta alle ore 21:14

Data e Ora Cielo e Fenomeni T °C DP °C Um. % Pres. hPa Vis. km Vento km/h
Oggi h: 11:50 poco_nuvoloso Poco Nuvoloso 27 19 61 1019 10 O/SO 9.3
Oggi h: 11:20 poco_nuvoloso Poco Nuvoloso 26 21 73 1019 10 SO 9.3
Oggi h: 10:50 sereno Sereno 26 19 65 1019 10 SO 7.4
Oggi h: 10:20 poco_nuvoloso Poco Nuvoloso 26 18 61 1019 10 O/SO 9.3
Oggi h: 09:50 sereno Sereno 27 17 54 1019 10 O/SO 9.3
Oggi h: 09:20 sereno Sereno 26 15 50 1019 10 N 5.5
Oggi h: 08:50 sereno Sereno 27 14 44 1019 10 N 1.8
Oggi h: 08:20 sereno Sereno 26 15 50 1019 10 N 3.7
Oggi h: 07:50 sereno Sereno 25 15 53 1018 10 N 7.4
Oggi h: 07:20 sereno Sereno 23 15 60 1018 10 N/NE 7.4
Oggi h: 06:20 sereno Sereno 23 15 60 1018 10 N 7.4
Oggi h: 05:50 sereno Sereno 23 15 60 1018 10 N/NE 7.4
Oggi h: 05:20 sereno Sereno 23 15 60 1018 10 N 7.4
Oggi h: 04:50 sereno Sereno 23 15 60 1017 10 N 9.3
Oggi h: 04:20 sereno Sereno 23 15 60 1017 10 N 7.4
Oggi h: 03:50 sereno Sereno 24 16 60 1017 10 N 3.7
Oggi h: 03:20 sereno Sereno 24 15 57 1017 10 E 11.1
Oggi h: 02:50 sereno Sereno 24 16 60 1017 10 E 20.3
Oggi h: 02:20 sereno Sereno 24 17 64 1017 10 N 5.5
Oggi h: 01:50 sereno Sereno 25 16 57 1017 10 N 5.5
Oggi h: 01:20 sereno Sereno 24 17 64 1017 10 N 1.8
Oggi h: 00:50 sereno Sereno 24 17 64 1017 10 N 9.3
Oggi h: 00:20 sereno Sereno 25 17 61 1017 10 N 7.4
Ieri h: 23:50 sereno Sereno 25 18 65 1017 10 N 5.5
Ieri h: 23:20 sereno Sereno 25 18 65 1017 10 N 5.5
Ieri h: 22:50 sereno Sereno 25 19 69 1016 10 N 7.4
Ieri h: 22:20 sereno Sereno 24 20 78 1016 10 N 3.7
Ieri h: 21:50 sereno Sereno 26 21 73 1016 10 E/NE 7.4
Ieri h: 21:20 sereno Sereno 26 21 73 1015 10 N 0
Ieri h: 20:50 sereno Sereno 26 20 69 1015 10 O 7.4
Ieri h: 20:20 sereno Sereno 26 20 69 1015 10 O 9.3
Ieri h: 19:50 sereno Sereno 26 21 73 1015 10 O 9.3
Ieri h: 19:20 sereno Sereno 26 21 73 1015 10 O 9.3
Ieri h: 18:50 sereno Sereno 26 22 78 1015 10 O/SO 16.7
Ieri h: 18:20 sereno Sereno 26 22 78 1015 10 O/SO 13
Ieri h: 17:50 poco_nuvoloso Poco Nuvoloso 27 19 61 1015 10 O/SO 7.4
Ieri h: 17:20 poco_nuvoloso Poco Nuvoloso 27 18 57 1015 10 O/SO 7.4
Ieri h: 16:50 poco_nuvoloso Poco Nuvoloso 27 17 54 1015 10 N 7.4
Ieri h: 16:20 poco_nuvoloso Poco Nuvoloso 27 18 57 1015 10 S/SE 11.1
Ieri h: 14:50 nuvoloso Nuvoloso 29 18 51 1015 10 S 9.3
Ieri h: 14:20 poco_nuvoloso Poco Nuvoloso 30 17 45 1015 10 N 13
Ieri h: 13:50 poco_nuvoloso Poco Nuvoloso 31 17 43 1015 10 N 9.3
Ieri h: 13:20 poco_nuvoloso Poco Nuvoloso 31 17 43 1015 10 N 7.4
Ieri h: 12:50 poco_nuvoloso Poco Nuvoloso 30 17 45 1016 10 N/NE 14.8